createdAt,value
2023-05-22T00:00:41.786Z,97748.16
2023-05-22T00:04:04.251Z,97750.72
2023-05-22T00:07:17.160Z,97745.88
2023-05-22T00:10:37.380Z,97744.38
2023-05-22T00:13:52.169Z,97745.63
2023-05-22T00:17:18.964Z,97741.03
2023-05-22T00:20:43.484Z,97731.31
2023-05-22T00:24:42.232Z,97736.16
2023-05-22T00:28:28.445Z,97729.25
2023-05-22T00:32:03.288Z,97743.53
2023-05-22T00:35:23.631Z,97740.47
2023-05-22T00:38:38.515Z,97737.19
2023-05-22T00:42:04.270Z,97728.44
2023-05-22T00:45:19.540Z,97733.88
2023-05-22T00:48:31.555Z,97716.22
2023-05-22T00:51:38.264Z,97720.72
2023-05-22T00:54:47.268Z,97730.47
2023-05-22T00:58:01.620Z,97723.81
2023-05-22T01:01:11.857Z,97722.06
2023-05-22T01:04:31.756Z,97722.56
2023-05-22T01:07:50.228Z,97727.34
2023-05-22T01:11:12.626Z,97719.44
2023-05-22T01:14:45.286Z,97718.09
2023-05-22T01:18:07.243Z,97719.59
2023-05-22T01:21:23.393Z,97706.53
2023-05-22T01:24:53.814Z,97699.22
2023-05-22T01:28:10.918Z,97702.53
2023-05-22T01:31:32.634Z,97693.78
2023-05-22T01:34:41.631Z,97707.88
2023-05-22T01:38:02.112Z,97702.28
2023-05-22T01:41:18.069Z,97691.06
2023-05-22T01:44:33.460Z,97705.16
2023-05-22T01:47:46.569Z,97698.94
2023-05-22T01:51:01.411Z,97695.22
2023-05-22T01:54:14.771Z,97704.09
2023-05-22T01:57:58.027Z,97694.34
2023-05-22T02:01:06.132Z,97694.59
2023-05-22T02:04:22.287Z,97700.34
2023-05-22T02:08:56.842Z,97700.72
2023-05-22T02:12:31.624Z,97719.53
2023-05-22T02:15:49.396Z,97711.03
2023-05-22T02:19:22.618Z,97709.50
2023-05-22T02:22:53.839Z,97712.13
2023-05-22T02:26:10.290Z,97709.47
2023-05-22T02:30:40.566Z,97718.22
2023-05-22T02:33:46.490Z,97713.50
2023-05-22T02:36:54.073Z,97712.28
2023-05-22T02:41:15.045Z,97711.34
2023-05-22T02:44:51.353Z,97714.09
2023-05-22T02:48:12.065Z,97714.31
2023-05-22T02:51:19.296Z,97714.31
2023-05-22T02:54:28.324Z,97717.19
2023-05-22T03:02:20.766Z,97728.59
2023-05-22T03:05:36.594Z,97721.00
2023-05-22T03:08:54.739Z,97719.22
2023-05-22T03:12:12.166Z,97719.31
2023-05-22T03:15:40.815Z,97725.88
2023-05-22T03:19:09.665Z,97724.69
2023-05-22T03:22:14.330Z,97726.78
2023-05-22T03:25:25.194Z,97727.72
2023-05-22T03:28:41.456Z,97732.31
2023-05-22T03:31:50.285Z,97726.81
2023-05-22T03:34:59.768Z,97722.75
2023-05-22T03:38:06.529Z,97740.44
2023-05-22T03:41:18.015Z,97742.44
2023-05-22T03:45:16.526Z,97735.59
2023-05-22T03:48:25.683Z,97739.34
2023-05-22T03:51:35.894Z,97746.53
2023-05-22T03:54:40.008Z,97736.88
2023-05-22T03:57:44.739Z,97743.75
2023-05-22T04:00:58.807Z,97746.66
2023-05-22T04:04:05.703Z,97746.63
2023-05-22T04:07:31.836Z,97744.50
2023-05-22T04:10:46.883Z,97751.41
2023-05-22T04:14:02.172Z,97745.81
2023-05-22T04:17:13.205Z,97749.38
2023-05-22T04:20:24.159Z,97746.09
2023-05-22T04:23:36.404Z,97748.63
2023-05-22T04:27:44.170Z,97751.25
2023-05-22T04:31:00.845Z,97751.81
2023-05-22T04:34:19.313Z,97744.91
2023-05-22T04:37:26.586Z,97759.38
2023-05-22T04:40:53.965Z,97747.34
2023-05-22T04:44:35.354Z,97757.31
2023-05-22T04:47:57.314Z,97753.50
2023-05-22T04:51:24.051Z,97762.00
2023-05-22T04:54:38.536Z,97765.75
2023-05-22T04:57:55.805Z,97762.31
2023-05-22T05:01:41.587Z,97761.63
2023-05-22T05:05:10.814Z,97762.81
2023-05-22T05:08:39.075Z,97765.06
2023-05-22T05:12:03.875Z,97763.13
2023-05-22T05:15:56.894Z,97764.44
2023-05-22T05:22:57.912Z,97772.22
2023-05-22T05:26:22.260Z,97769.66
2023-05-22T05:29:51.981Z,97780.56
2023-05-22T05:33:08.593Z,97775.63
2023-05-22T05:36:25.410Z,97777.28
2023-05-22T05:39:32.089Z,97779.66
2023-05-22T05:42:40.389Z,97779.59
2023-05-22T05:45:50.653Z,97777.19
2023-05-22T05:48:55.074Z,97775.34
2023-05-22T05:52:03.051Z,97779.16
2023-05-22T05:55:12.705Z,97771.75
2023-05-22T05:58:18.318Z,97771.84
2023-05-22T06:01:35.836Z,97779.38
2023-05-22T06:04:42.684Z,97775.66
2023-05-22T06:07:49.808Z,97779.38
2023-05-22T06:10:53.700Z,97786.13
2023-05-22T06:14:13.858Z,97775.75
2023-05-22T06:17:17.600Z,97774.41
2023-05-22T06:20:25.148Z,97772.63
2023-05-22T06:23:30.158Z,97779.41
2023-05-22T06:26:34.317Z,97783.38
2023-05-22T06:29:39.608Z,97781.03
2023-05-22T06:32:45.029Z,97775.81
2023-05-22T06:35:49.097Z,97778.34
2023-05-22T06:38:55.716Z,97785.28
2023-05-22T06:42:28.708Z,97789.16
2023-05-22T06:46:05.690Z,97784.19
2023-05-22T06:49:29.522Z,97781.91
2023-05-22T06:52:35.501Z,97779.03
2023-05-22T06:55:47.994Z,97782.84
2023-05-22T06:59:01.248Z,97777.53
2023-05-22T07:02:27.966Z,97772.03
2023-05-22T07:05:51.536Z,97777.34
2023-05-22T07:08:55.473Z,97770.22
2023-05-22T07:12:01.520Z,97771.34
2023-05-22T07:15:11.878Z,97776.50
2023-05-22T07:18:17.319Z,97778.91
2023-05-22T07:21:24.740Z,97783.41
2023-05-22T07:24:35.128Z,97774.94
2023-05-22T07:27:45.680Z,97769.72
2023-05-22T07:32:16.037Z,97775.69
2023-05-22T07:35:52.054Z,97782.47
2023-05-22T07:39:47.970Z,97771.09
2023-05-22T07:42:59.255Z,97777.78
2023-05-22T07:46:04.024Z,97778.69
2023-05-22T07:49:19.975Z,97785.13
2023-05-22T07:52:44.147Z,97780.03
2023-05-22T08:01:35.688Z,97782.81
2023-05-22T08:04:44.955Z,97788.50
2023-05-22T08:07:48.620Z,97775.22
2023-05-22T08:14:05.922Z,97789.97
2023-05-22T08:17:11.299Z,97777.31
2023-05-22T08:20:15.278Z,97776.03
2023-05-22T08:23:19.558Z,97768.78
2023-05-22T08:26:23.243Z,97753.50
2023-05-22T08:29:27.251Z,97758.84
2023-05-22T08:32:32.521Z,97764.31
2023-05-22T08:35:36.406Z,97768.38
2023-05-22T08:38:40.055Z,97755.81
2023-05-22T08:41:44.446Z,97757.13
2023-05-22T08:44:50.256Z,97752.59
2023-05-22T08:47:58.894Z,97756.94
2023-05-22T08:51:09.826Z,97752.78
2023-05-22T08:54:18.738Z,97760.38
2023-05-22T08:57:23.274Z,97756.19
2023-05-22T09:00:27.175Z,97757.59
2023-05-22T09:03:34.377Z,97743.78
2023-05-22T09:06:41.606Z,97751.00
2023-05-22T09:09:45.301Z,97751.91
2023-05-22T09:13:01.989Z,97751.81
2023-05-22T09:16:09.942Z,97748.78
2023-05-22T09:19:16.259Z,97756.94
2023-05-22T09:22:20.453Z,97738.63
2023-05-22T09:25:27.767Z,97746.84
2023-05-22T09:28:37.687Z,97752.38
2023-05-22T09:31:45.805Z,97743.56
2023-05-22T09:34:54.207Z,97742.84
2023-05-22T09:38:06.622Z,97740.06
2023-05-22T09:41:28.355Z,97736.69
2023-05-22T09:44:50.263Z,97735.34
2023-05-22T09:47:54.814Z,97742.75
2023-05-22T09:51:13.908Z,97739.09
2023-05-22T09:54:21.689Z,97733.41
2023-05-22T09:57:27.510Z,97736.59
2023-05-22T10:00:34.833Z,97729.41
2023-05-22T10:03:42.211Z,97725.78
2023-05-22T10:06:51.443Z,97730.25
2023-05-22T10:10:03.470Z,97721.22
2023-05-22T10:13:07.429Z,97730.25
2023-05-22T10:16:12.440Z,97734.66
2023-05-22T10:19:16.522Z,97727.06
2023-05-22T10:22:22.814Z,97725.44
2023-05-22T10:25:27.289Z,97739.31
2023-05-22T10:28:37.037Z,97735.22
2023-05-22T10:31:51.881Z,97727.28
2023-05-22T10:35:19.957Z,97724.44
2023-05-22T10:38:54.665Z,97717.38
2023-05-22T10:42:00.162Z,97713.72
2023-05-22T10:45:08.102Z,97703.50
2023-05-22T10:48:13.684Z,97710.50
2023-05-22T10:51:21.981Z,97701.75
2023-05-22T10:54:43.523Z,97711.91
2023-05-22T10:57:48.199Z,97709.66
2023-05-22T11:01:16.715Z,97701.09
2023-05-22T11:04:31.860Z,97704.22
2023-05-22T11:07:41.858Z,97698.41
2023-05-22T11:11:02.551Z,97696.13
2023-05-22T11:14:18.300Z,97692.81
2023-05-22T11:17:33.707Z,97692.94
2023-05-22T11:20:44.449Z,97684.00
2023-05-22T11:27:43.713Z,97681.09
2023-05-22T11:30:51.080Z,97670.88
2023-05-22T11:34:19.240Z,97690.38
2023-05-22T11:37:58.062Z,97670.28
2023-05-22T11:41:02.678Z,97679.88
2023-05-22T11:44:11.286Z,97670.88
2023-05-22T11:47:15.812Z,97669.88
2023-05-22T11:50:41.085Z,97654.91
2023-05-22T11:53:50.321Z,97646.09
2023-05-22T11:56:54.810Z,97645.38
2023-05-22T12:00:00.908Z,97647.03
2023-05-22T12:03:11.199Z,97642.41
2023-05-22T12:06:18.776Z,97639.50
2023-05-22T12:09:25.666Z,97642.03
2023-05-22T12:12:33.055Z,97651.50
2023-05-22T12:15:43.502Z,97647.94
2023-05-22T12:18:56.070Z,97649.28
2023-05-22T12:22:12.574Z,97652.53
2023-05-22T12:25:20.680Z,97640.56
2023-05-22T12:28:24.998Z,97639.81
2023-05-22T12:31:36.292Z,97639.81
2023-05-22T12:34:45.592Z,97637.72
2023-05-22T12:37:53.173Z,97638.09
2023-05-22T12:40:57.830Z,97632.59
2023-05-22T12:44:04.555Z,97644.19
2023-05-22T12:47:11.810Z,97644.38
2023-05-22T12:50:16.948Z,97635.94
2023-05-22T12:54:11.801Z,97634.69
2023-05-22T12:57:16.897Z,97634.81
2023-05-22T13:00:21.478Z,97626.91
2023-05-22T13:03:53.161Z,97630.03
2023-05-22T13:07:00.277Z,97620.88
2023-05-22T13:10:21.302Z,97625.50
2023-05-22T13:13:33.196Z,97618.38
2023-05-22T13:16:41.327Z,97616.75
2023-05-22T13:19:54.527Z,97612.66
2023-05-22T13:23:03.426Z,97604.47
2023-05-22T13:26:17.531Z,97622.91
2023-05-22T13:29:35.073Z,97616.00
2023-05-22T13:32:51.522Z,97606.50
2023-05-22T13:36:04.893Z,97605.34
2023-05-22T13:39:08.565Z,97596.59
2023-05-22T13:43:19.500Z,97599.69
2023-05-22T13:46:38.639Z,97609.19
2023-05-22T13:49:49.361Z,97595.88
2023-05-22T13:52:55.430Z,97605.19
2023-05-22T13:56:00.378Z,97594.97
2023-05-22T13:59:09.432Z,97598.59
2023-05-22T14:02:20.593Z,97594.59
2023-05-22T14:08:50.648Z,97592.09
2023-05-22T14:11:58.775Z,97587.53
2023-05-22T14:15:09.535Z,97588.88
2023-05-22T14:18:31.892Z,97593.28
2023-05-22T14:21:51.180Z,97579.00
2023-05-22T14:25:44.282Z,97573.91
2023-05-22T14:29:04.526Z,97584.53
2023-05-22T14:32:57.402Z,97575.97
2023-05-22T14:37:00.683Z,97571.97
2023-05-22T14:40:19.177Z,97564.63
2023-05-22T14:43:22.629Z,97562.91
2023-05-22T14:46:28.251Z,97566.91
2023-05-22T14:49:32.686Z,97568.59
2023-05-22T14:52:36.885Z,97564.41
2023-05-22T14:55:44.724Z,97563.06
2023-05-22T14:58:51.445Z,97564.59
2023-05-22T15:02:02.548Z,97559.28
2023-05-22T15:05:13.169Z,97559.09
2023-05-22T15:08:25.838Z,97560.81
2023-05-22T15:11:35.297Z,97555.66
2023-05-22T15:14:38.944Z,97553.75
2023-05-22T15:17:44.433Z,97561.00
2023-05-22T15:20:49.084Z,97564.59
2023-05-22T15:24:00.813Z,97560.34
2023-05-22T15:27:13.515Z,97559.22
2023-05-22T15:30:23.958Z,97572.09
2023-05-22T15:33:35.004Z,97578.72
2023-05-22T15:36:41.371Z,97579.69
2023-05-22T15:40:14.813Z,97581.59
2023-05-22T15:43:51.183Z,97581.03
2023-05-22T15:47:17.560Z,97588.72
2023-05-22T15:50:40.398Z,97586.09
2023-05-22T15:53:55.711Z,97583.56
2023-05-22T15:57:06.933Z,97590.94
2023-05-22T16:00:19.582Z,97582.16
2023-05-22T16:03:48.300Z,97580.84
2023-05-22T16:06:58.896Z,97584.72
2023-05-22T16:10:12.552Z,97582.16
2023-05-22T16:13:21.773Z,97584.72
2023-05-22T16:16:25.308Z,97586.88
2023-05-22T16:19:31.866Z,97587.84
2023-05-22T16:22:47.970Z,97580.41
2023-05-22T16:27:10.135Z,97587.31
2023-05-22T16:30:16.936Z,97597.84
2023-05-22T16:33:21.155Z,97589.44
2023-05-22T16:36:27.211Z,97591.00
2023-05-22T16:39:33.099Z,97590.66
2023-05-22T16:42:38.853Z,97596.09
2023-05-22T16:45:46.630Z,97590.91
2023-05-22T16:48:50.805Z,97598.66
2023-05-22T16:51:54.575Z,97599.81
2023-05-22T16:55:01.446Z,97601.31
2023-05-22T16:58:09.277Z,97597.53
2023-05-22T17:01:13.653Z,97604.88
2023-05-22T17:04:19.423Z,97602.78
2023-05-22T17:07:23.597Z,97611.41
2023-05-22T17:10:29.825Z,97610.97
2023-05-22T17:13:36.170Z,97616.94
2023-05-22T17:16:40.923Z,97604.03
2023-05-22T17:19:45.422Z,97604.81
2023-05-22T17:22:56.194Z,97609.69
2023-05-22T17:26:21.225Z,97614.97
2023-05-22T17:29:28.222Z,97608.94
2023-05-22T17:32:37.518Z,97619.47
2023-05-22T17:35:43.021Z,97604.06
2023-05-22T17:38:46.938Z,97606.78
2023-05-22T17:41:54.798Z,97617.44
2023-05-22T17:44:58.952Z,97619.25
2023-05-22T17:48:02.541Z,97622.03
2023-05-22T17:51:06.724Z,97620.88
2023-05-22T17:54:13.153Z,97622.69
2023-05-22T17:57:19.782Z,97623.06
2023-05-22T18:00:23.487Z,97625.59
2023-05-22T18:03:28.556Z,97619.91
2023-05-22T18:06:33.030Z,97618.34
2023-05-22T18:09:37.436Z,97627.47
2023-05-22T18:12:42.580Z,97634.34
2023-05-22T18:15:46.437Z,97625.81
2023-05-22T18:18:50.229Z,97635.47
2023-05-22T18:21:56.525Z,97631.34
2023-05-22T18:25:00.887Z,97630.13
2023-05-22T18:28:08.639Z,97637.78
2023-05-22T18:31:12.488Z,97637.00
2023-05-22T18:34:21.274Z,97637.00
2023-05-22T18:37:28.232Z,97646.06
2023-05-22T18:40:37.953Z,97653.09
2023-05-22T18:43:43.485Z,97648.53
2023-05-22T18:46:48.352Z,97654.44
2023-05-22T18:49:52.748Z,97660.97
2023-05-22T18:52:56.774Z,97659.69
2023-05-22T18:56:00.253Z,97667.66
2023-05-22T18:59:13.550Z,97677.41
2023-05-22T19:02:22.105Z,97673.44
2023-05-22T19:05:30.830Z,97685.59
2023-05-22T19:08:37.388Z,97686.00
2023-05-22T19:11:42.833Z,97685.16
2023-05-22T19:14:49.936Z,97686.59
2023-05-22T19:17:58.120Z,97696.28
2023-05-22T19:24:30.264Z,97708.97
2023-05-22T19:28:02.549Z,97715.53
2023-05-22T19:31:31.826Z,97711.38
2023-05-22T19:34:55.029Z,97715.81
2023-05-22T19:39:16.193Z,97720.28
2023-05-22T19:42:29.252Z,97719.25
2023-05-22T19:45:35.995Z,97723.03
2023-05-22T19:49:05.371Z,97725.81
2023-05-22T19:52:13.745Z,97718.28
2023-05-22T19:55:18.786Z,97727.94
2023-05-22T19:58:25.370Z,97729.94
2023-05-22T20:01:30.504Z,97737.81
2023-05-22T20:04:36.019Z,97734.16
2023-05-22T20:07:44.972Z,97749.50
2023-05-22T20:10:59.634Z,97744.63
2023-05-22T20:14:12.620Z,97745.47
2023-05-22T20:17:32.224Z,97753.06
2023-05-22T20:21:19.979Z,97752.16
2023-05-22T20:25:43.635Z,97749.38
2023-05-22T20:29:00.138Z,97743.06
2023-05-22T20:32:16.320Z,97751.53
2023-05-22T20:35:39.310Z,97747.94
2023-05-22T20:39:04.050Z,97748.72
2023-05-22T20:42:16.871Z,97753.88
2023-05-22T20:46:12.685Z,97752.50
2023-05-22T20:49:23.712Z,97755.22
2023-05-22T20:52:38.630Z,97756.34
2023-05-22T20:55:53.716Z,97754.50
2023-05-22T20:59:00.033Z,97760.69
2023-05-22T21:02:21.135Z,97764.56
2023-05-22T21:05:39.307Z,97763.06
2023-05-22T21:09:44.074Z,97757.59
2023-05-22T21:13:05.763Z,97762.69
2023-05-22T21:16:18.727Z,97759.16
2023-05-22T21:19:37.804Z,97758.13
2023-05-22T21:22:47.926Z,97756.31
2023-05-22T21:25:56.521Z,97759.84
2023-05-22T21:29:04.512Z,97753.31
2023-05-22T21:32:19.126Z,97752.56
2023-05-22T21:35:26.056Z,97754.75
2023-05-22T21:38:37.941Z,97756.03
2023-05-22T21:41:43.873Z,97759.16
2023-05-22T21:44:53.204Z,97753.78
2023-05-22T21:48:00.444Z,97748.69
2023-05-22T21:51:11.200Z,97752.72
2023-05-22T21:54:26.895Z,97754.75
2023-05-22T21:57:36.817Z,97755.47
2023-05-22T22:00:43.998Z,97758.63
2023-05-22T22:03:48.566Z,97761.72
2023-05-22T22:06:53.844Z,97754.34
2023-05-22T22:09:59.277Z,97765.84
2023-05-22T22:13:04.184Z,97767.88
2023-05-22T22:16:25.428Z,97755.09
2023-05-22T22:19:41.418Z,97759.16
2023-05-22T22:22:52.711Z,97765.09
2023-05-22T22:26:07.404Z,97755.09
2023-05-22T22:29:23.364Z,97758.91
2023-05-22T22:32:37.784Z,97744.09
2023-05-22T22:35:59.111Z,97739.53
2023-05-22T22:39:19.089Z,97743.38
2023-05-22T22:42:29.873Z,97747.19
2023-05-22T22:46:53.295Z,97745.38
2023-05-22T22:50:11.482Z,97752.81
2023-05-22T22:53:16.416Z,97759.22
2023-05-22T22:56:24.335Z,97751.28
2023-05-22T22:59:29.584Z,97753.34
2023-05-22T23:02:36.661Z,97747.97
2023-05-22T23:05:45.217Z,97757.66
2023-05-22T23:08:50.931Z,97746.66
2023-05-22T23:11:59.891Z,97741.31
2023-05-22T23:15:15.881Z,97739.78
2023-05-22T23:18:19.778Z,97744.13
2023-05-22T23:21:26.710Z,97742.63
2023-05-22T23:24:33.150Z,97745.16
2023-05-22T23:27:48.180Z,97737.47
2023-05-22T23:31:10.724Z,97733.41
2023-05-22T23:34:36.105Z,97732.63
2023-05-22T23:37:53.872Z,97734.19
2023-05-22T23:41:32.332Z,97735.88
2023-05-22T23:44:54.576Z,97739.47
2023-05-22T23:48:19.558Z,97743.28
2023-05-22T23:51:45.505Z,97739.47
2023-05-22T23:55:22.488Z,97734.59
2023-05-22T23:58:51.341Z,97732.31
